Nearby METAR Reports

 

PAEN - Kenai, Alaska, USA
Distance from station: ESE 2mi, 4km
Updated: Tue, 20-Feb-2018 7:53pm AKST
Clear
Clear
 Wind from N
Wind: N 6 mph , 9 km/h
Temperature: 18°F , -8°C
Wind Chill: 10°F , -12°C
Dew Point: 18°F , -8°C
Humidity: 100%
Barometer: 30.55 inHg , 1034.5 hPa
Clouds: Clear
Visibility: 8 miles , 13 km
2018/02/21 04:53 PAEN 210453Z 36005KT 8SM CLR M08/M08 A3055 RMK AO2 SLP347 I1001 T10831083 $
PASX - Soldotna, Alaska, USA
Distance from station: SE 12mi, 19km
Updated: Tue, 20-Feb-2018 7:56pm AKST
Clear
Clear
 Wind from W
Wind: W 6 mph , 9 km/h
Temperature: 19°F , -7°C
Wind Chill: 11°F , -12°C
Dew Point: 18°F , -8°C
Humidity: 93%
Barometer: 30.56 inHg , 1034.9 hPa
Clouds: Clear
Visibility: 10 miles , 16 km
2018/02/21 04:56 PASX 210456Z AUTO 26005KT 10SM CLR M07/M08 A3056 RMK AO2 SLP358 T10721078 FZRANO
 
PANC - Anchorage Intl, Alaska, USA
Distance from station: NE 59mi, 96km
Updated: Tue, 20-Feb-2018 8:00pm AKST
Freezing fog, Overcast
Freezing fog, Overcast
 Wind from ENE
Wind: ENE 6 mph , 9 km/h
Temperature: 25°F , -4°C
Wind Chill: 18°F , -8°C
Dew Point: 21°F , -6°C
Humidity: 86%
Barometer: 30.54 inHg , 1034.2 hPa
Summary: Freezing Fog
Clouds: Overcast
Visibility: 1/4 mile , 0.4 km
Cloud details: Overcast 200 ft
2018/02/21 05:00 PANC 210500Z 06005KT 1/4SM R07R/1000V2000FT FZFG VV002 M04/M06 A3054 RMK AO2 TWR VIS 1/2 T10441056 $
PALH - Anchorage/Lake H, Alaska, USA
Distance from station: NE 61mi, 99km
Updated: Tue, 20-Feb-2018 7:53pm AKST
Mist, Overcast
Mist, Overcast
 Wind from NE
Wind: NE 5 mph , 7 km/h
Temperature: 23°F , -5°C
Wind Chill: 17°F , -8°C
Dew Point: 21°F , -6°C
Humidity: 93%
Barometer: 30.56 inHg , 1034.9 hPa
Summary: Mist
Clouds: Overcast
Visibility: 1/2 mile , 0.8 km
Cloud details: Overcast 300 ft
2018/02/21 04:53 PALH 210453Z 04004KT 1/2SM BR VV003 M05/M06 A3056 RMK AO2 SFC VIS 3/4 SLP349 T10501056 PNO $
 
PAHO - Homer, Alaska, USA
Distance from station: S 66mi, 106km
Updated: Tue, 20-Feb-2018 7:53pm AKST
Clear
Clear
 Wind from W
Wind: W 3 mph , 6 km/h
Temperature: 28°F , -2°C
Dew Point: 25°F , -4°C
Humidity: 86%
Barometer: 30.50 inHg , 1032.8 hPa
Clouds: Clear
Visibility: 10 miles , 16 km
2018/02/21 04:53 PAHO 210453Z 26003KT 10SM CLR M02/M04 A3050 RMK AO2 SLP330 T10171039
PAMR - Anchorage/Merril, Alaska, USA
Distance from station: NE 66mi, 106km
Updated: Tue, 20-Feb-2018 7:53pm AKST
Freezing fog, Overcast
Freezing fog, Overcast
 Wind from NNE
Wind: NNE 6 mph , 9 km/h
Temperature: 21°F , -6°C
Wind Chill: 13°F , -11°C
Dew Point: 21°F , -6°C
Humidity: 100%
Barometer: 30.54 inHg , 1034.2 hPa
Summary: Freezing Fog
Clouds: Overcast
Visibility: 1/2 mile , 0.8 km
Cloud details: Overcast 200 ft
2018/02/21 04:53 PAMR 210453Z 03005KT 1/2SM FZFG OVC002 M06/M06 A3054 RMK AO2 SNB27E36 SLP345 P0000 T10561056
 
PAED - Elmendorf Afb, Alaska, USA
Distance from station: NE 69mi, 110km
Updated: Tue, 20-Feb-2018 8:07pm AKST
Mist, Overcast
Mist, Overcast
 Wind from N
Wind: N 7 mph , 11 km/h
Temperature: 21°F , -6°C
Wind Chill: 12°F , -11°C
Dew Point: 21°F , -6°C
Humidity: 100%
Barometer: 30.53 inHg , 1033.9 hPa
Summary: Mist
Clouds: Overcast
Visibility: 1 mile , 2 km
Cloud details: Overcast 300 ft
2018/02/21 05:07 PAED 210507Z 01006KT 1SM BR OVC003 M06/M06 A3053 RMK VIS 1/2 RWY24 CIG 001 RWY24 SLP337
PAWD - Seward, Alaska, USA
Distance from station: ESE 71mi, 115km
Updated: Tue, 20-Feb-2018 7:53pm AKST
Clear
Clear
 Wind from NNE
Wind: NNE 18 mph , 30 km/h, Gust: 26 mph , 43 km/h
Temperature: 36°F , 2°C
Wind Chill: 26°F , -3°C
Dew Point: 19°F , -7°C
Humidity: 52%
Barometer: 30.47 inHg , 1031.8 hPa
Clouds: Clear
Visibility: 10 miles , 16 km
2018/02/21 04:53 PAWD 210453Z AUTO 03016G23KT 10SM CLR 02/M07 A3047 RMK AO2 PK WND 34026/0354 SLP318 T00171067 TSNO
 
PASC - Deadhorse, Alaska, USA
Distance from station: ENE 670mi, 1078km
Updated: Tue, 20-Feb-2018 7:53pm AKST
Partly cloudy
Partly cloudy
 Wind from SW
Wind: SW 24 mph , 39 km/h
Temperature: 19°F , -7°C
Wind Chill: 2°F , -17°C
Dew Point: 16°F , -9°C
Humidity: 86%
Barometer: 29.98 inHg , 1015.2 hPa
Clouds: Partly cloudy
Visibility: 10 miles , 16 km
Cloud details: Partly cloudy 11000 ft
2018/02/21 04:53 PASC 210453Z 23021KT 10SM SCT110 M07/M09 A2998 RMK AO2 SLP154 DRSN T10671094
PAAD - Point Thomson, Alaska, USA
Distance from station: ENE 680mi, 1094km
Updated: Tue, 20-Feb-2018 7:55pm AKST
Clear
Clear
 Wind from SW
Wind: SW 26 mph , 43 km/h
Temperature: 21°F , -6°C
Wind Chill: 4°F , -16°C
Dew Point: 14°F , -10°C
Humidity: 74%
Barometer: 30.00 inHg , 1015.9 hPa
Clouds: Clear
Visibility: 10 miles , 16 km
2018/02/21 04:55 PAAD 210455Z AUTO 23023KT 10SM CLR M06/M10 A3000 RMK AO2 T10621103


kenaipeople.com website

Dans Automotive

Lower Peninsula Power Sports

Freddies RoadHouse

Alaska Weather Net

United States Weather Group